Time;durP1;ratioP1;P1;durP2;ratioP2;P2;SDS_P1;SDS_P2;PMS_P1;PMS_P2;Temp;Humidity;BMP_temperature;BMP_pressure;BME280_temperature;BME280_humidity;BME280_pressure;Samples;Min_cycle;Max_cycle;Signal;HPM_P1;HPM_P2
2022/12/17 13:08:06;;;;;;;14.57;8.87;;;0.10;99.90;;;;;;5095184;28;20331;-93
2022/12/17 13:10:33;;;;;;;19.30;9.97;;;0.10;99.90;;;;;;5077777;28;20178;-91
2022/12/17 13:13:14;;;;;;;14.37;9.10;;;0.10;99.90;;;;;;5077394;28;20177;-89
2022/12/17 13:15:45;;;;;;;15.80;9.17;;;0.10;99.90;;;;;;5077448;28;20279;-89
2022/12/17 13:18:23;;;;;;;20.27;10.33;;;0.10;99.90;;;;;;5077517;28;20204;-89
2022/12/17 13:21:15;;;;;;;18.37;10.23;;;0.20;99.90;;;;;;5094325;28;20188;-89
2022/12/17 13:23:42;;;;;;;19.13;9.70;;;0.20;99.90;;;;;;5074183;28;20185;-88
2022/12/17 13:26:24;;;;;;;14.07;9.60;;;0.20;99.90;;;;;;5077297;28;20212;-89
2022/12/17 13:28:56;;;;;;;18.30;9.60;;;0.20;99.90;;;;;;5077509;28;20262;-90
2022/12/17 13:31:27;;;;;;;17.83;9.97;;;0.20;99.90;;;;;;5077626;28;20184;-91
2022/12/17 13:34:04;;;;;;;18.80;9.43;;;0.20;99.90;;;;;;5077376;28;20175;-93
2022/12/17 13:36:55;;;;;;;15.80;9.87;;;0.20;99.90;;;;;;5077315;28;20207;-88
2022/12/17 13:39:47;;;;;;;14.47;9.80;;;0.20;99.90;;;;;;5077133;28;20180;-89
2022/12/17 13:42:44;;;;;;;18.43;11.13;;;0.20;99.90;;;;;;5053702;28;20185;-93
2022/12/17 13:45:16;;;;;;;16.57;10.67;;;0.30;99.90;;;;;;5057027;28;20223;-91
2022/12/17 13:47:42;;;;;;;20.13;11.97;;;0.40;99.90;;;;;;5094183;28;20185;-92
2022/12/17 13:50:21;;;;;;;22.93;12.67;;;0.50;99.90;;;;;;5077216;28;20577;-91
2022/12/17 13:52:47;;;;;;;19.13;13.00;;;0.60;99.90;;;;;;5093635;28;20183;-89
2022/12/17 13:55:24;;;;;;;25.77;13.53;;;0.70;99.90;;;;;;5095176;28;20514;-92
2022/12/17 13:57:51;;;;;;;21.37;12.47;;;0.70;99.90;;;;;;5094117;28;20200;-90
2022/12/17 14:00:28;;;;;;;28.33;12.93;;;0.80;99.90;;;;;;5095579;28;20176;-92
2022/12/17 14:02:55;;;;;;;24.27;13.43;;;0.80;99.90;;;;;;5081749;28;20168;-91
2022/12/17 14:05:32;;;;;;;28.53;14.30;;;0.80;99.90;;;;;;5098326;28;20216;-91
2022/12/17 14:08:01;;;;;;;25.63;13.23;;;0.70;99.90;;;;;;5097692;28;20243;-91
2022/12/17 14:10:28;;;;;;;21.13;13.97;;;0.70;99.90;;;;;;5098112;28;20176;-89
2022/12/17 14:13:11;;;;;;;27.87;13.57;;;0.60;99.90;;;;;;5098241;28;20176;-90
2022/12/17 14:15:37;;;;;;;20.97;13.60;;;0.50;99.90;;;;;;5098027;28;20275;-91
2022/12/17 14:18:03;;;;;;;22.00;13.50;;;0.40;99.90;;;;;;5081224;28;20214;-93
2022/12/17 14:20:34;;;;;;;19.50;12.23;;;0.30;99.90;;;;;;5097914;28;20168;-91
2022/12/17 14:23:10;;;;;;;22.50;12.53;;;0.30;99.90;;;;;;5097831;28;20173;-91
2022/12/17 14:25:39;;;;;;;22.07;13.03;;;0.30;99.90;;;;;;5072415;28;20206;-90
2022/12/17 14:28:28;;;;;;;22.40;12.87;;;0.20;99.90;;;;;;5060823;28;20174;-90
2022/12/17 14:31:22;;;;;;;26.70;12.57;;;0.10;99.90;;;;;;5060936;28;20173;-90
2022/12/17 14:34:06;;;;;;;21.17;12.30;;;0.00;99.90;;;;;;5060771;28;20170;-93
2022/12/17 14:36:35;;;;;;;23.33;12.50;;;-0.10;99.90;;;;;;5078406;28;20225;-90
2022/12/17 14:39:23;;;;;;;23.83;11.97;;;-0.20;99.90;;;;;;5059861;28;20177;-91
2022/12/17 14:44:37;;;;;;;20.47;12.90;;;-0.40;99.90;;;;;;5078715;28;20192;-90
2022/12/17 14:47:27;;;;;;;24.73;12.63;;;-0.50;99.90;;;;;;5060366;28;20213;-90
2022/12/17 14:50:06;;;;;;;21.03;12.60;;;-0.50;99.90;;;;;;5060395;28;20187;-90
2022/12/17 14:52:46;;;;;;;24.87;12.67;;;-0.60;99.90;;;;;;5079575;28;20180;-91
2022/12/17 14:55:36;;;;;;;22.10;13.77;;;-0.70;99.90;;;;;;5097237;28;20210;-90
2022/12/17 14:58:12;;;;;;;21.97;13.50;;;-0.80;99.90;;;;;;5080365;28;20173;-90
2022/12/17 15:01:03;;;;;;;22.67;12.83;;;-0.80;99.90;;;;;;5080460;28;20173;-92
2022/12/17 15:03:32;;;;;;;22.87;12.90;;;-0.90;99.90;;;;;;5098492;28;20157;-92
2022/12/17 15:06:01;;;;;;;25.40;14.03;;;-0.90;99.90;;;;;;5096985;28;20227;-90
2022/12/17 15:08:54;;;;;;;23.53;12.20;;;-1.00;99.90;;;;;;5096698;28;20227;-90
2022/12/17 15:11:21;;;;;;;24.40;12.87;;;-1.10;99.90;;;;;;5096263;28;20196;-91
2022/12/17 15:13:47;;;;;;;23.77;13.13;;;-1.10;99.90;;;;;;5096706;28;20271;-92
2022/12/17 15:16:13;;;;;;;24.17;12.73;;;-1.20;99.90;;;;;;5097061;28;20172;-91
2022/12/17 15:18:39;;;;;;;20.83;12.47;;;-1.20;99.90;;;;;;5096877;28;20271;-90
2022/12/17 15:21:05;;;;;;;23.60;12.43;;;-1.20;99.90;;;;;;5096597;28;20196;-90
2022/12/17 15:23:31;;;;;;;19.43;11.97;;;-1.30;99.90;;;;;;5096531;28;20184;-90
2022/12/17 15:25:56;;;;;;;24.83;12.97;;;-1.40;99.90;;;;;;5097984;28;20204;-90
2022/12/17 15:28:26;;;;;;;22.10;12.70;;;-1.40;99.90;;;;;;5097858;28;20169;-90
2022/12/17 15:30:52;;;;;;;24.40;12.63;;;-1.40;99.90;;;;;;5096748;28;20191;-93
2022/12/17 15:33:18;;;;;;;22.00;11.93;;;-1.50;99.90;;;;;;5095776;28;20183;-93
2022/12/17 15:35:44;;;;;;;25.27;11.57;;;-1.50;99.90;;;;;;5095980;28;20180;-93
2022/12/17 15:38:15;;;;;;;21.00;11.73;;;-1.60;99.90;;;;;;5096078;28;20184;-93
2022/12/17 15:40:41;;;;;;;26.47;11.93;;;-1.60;99.90;;;;;;5097816;28;20169;-95
2022/12/17 15:43:12;;;;;;;22.87;11.97;;;-1.60;99.90;;;;;;5079309;28;20181;-94
2022/12/17 15:45:59;;;;;;;23.37;11.53;;;-1.60;99.90;;;;;;5097354;28;20223;-93
2022/12/17 15:48:26;;;;;;;20.27;10.13;;;-1.70;99.90;;;;;;5096369;28;20192;-93
2022/12/17 15:50:51;;;;;;;18.60;10.70;;;-1.70;99.90;;;;;;5079469;28;20194;-93
2022/12/17 15:53:17;;;;;;;16.27;11.03;;;-1.80;99.90;;;;;;5096090;28;20184;-93
2022/12/17 15:55:43;;;;;;;18.90;10.73;;;-1.80;99.90;;;;;;5096006;28;20267;-93
2022/12/17 15:58:10;;;;;;;21.37;11.03;;;-1.90;99.90;;;;;;5096193;28;20176;-94
2022/12/17 16:00:36;;;;;;;22.43;11.50;;;-1.90;99.90;;;;;;5096239;28;20626;-89
2022/12/17 16:03:02;;;;;;;15.43;11.27;;;-2.00;99.90;;;;;;5095286;28;20274;-89
2022/12/17 16:05:28;;;;;;;18.17;10.97;;;-2.00;99.90;;;;;;5096563;28;20710;-93
2022/12/17 16:07:57;;;;;;;19.03;10.60;;;-2.10;99.90;;;;;;5094960;28;20514;-89
2022/12/17 16:10:23;;;;;;;17.00;10.40;;;-2.10;99.90;;;;;;5078719;28;20187;-92
2022/12/17 16:12:49;;;;;;;18.20;10.33;;;-2.10;99.90;;;;;;5078412;28;20225;-88
2022/12/17 16:15:15;;;;;;;21.87;10.77;;;-2.10;99.90;;;;;;5078333;28;20271;-89
2022/12/17 16:17:41;;;;;;;16.37;10.30;;;-2.20;99.90;;;;;;5078690;28;20172;-88
2022/12/17 16:20:07;;;;;;;20.53;10.80;;;-2.30;99.90;;;;;;5078752;28;20517;-88
2022/12/17 16:22:33;;;;;;;16.40;10.13;;;-2.30;99.90;;;;;;5094959;28;20184;-91
2022/12/17 16:24:58;;;;;;;16.47;10.37;;;-2.30;99.90;;;;;;5077044;28;20565;-88
2022/12/17 16:27:26;;;;;;;14.57;9.87;;;-2.30;99.90;;;;;;5078197;28;20184;-87
2022/12/17 16:29:52;;;;;;;17.37;9.43;;;-2.40;99.90;;;;;;5078004;28;20272;-88
2022/12/17 16:32:18;;;;;;;19.37;10.63;;;-2.40;99.90;;;;;;5077954;28;20184;-93
2022/12/17 16:34:44;;;;;;;19.83;10.03;;;-2.40;99.90;;;;;;5077815;28;20563;-89
2022/12/17 16:37:10;;;;;;;20.73;9.87;;;-2.50;99.90;;;;;;5095651;28;20176;-88
2022/12/17 16:39:36;;;;;;;14.90;10.03;;;-2.50;99.90;;;;;;5078183;28;20178;-88
2022/12/17 16:42:02;;;;;;;20.33;11.93;;;-2.50;99.90;;;;;;5071454;28;20180;-89
2022/12/17 16:44:27;;;;;;;19.63;10.90;;;-2.60;99.90;;;;;;5057889;28;20614;-86
2022/12/17 16:46:53;;;;;;;19.80;11.67;;;-2.60;99.90;;;;;;5062693;28;20220;-91
2022/12/17 16:49:22;;;;;;;18.57;9.73;;;-2.60;99.90;;;;;;5104317;28;20557;-89
2022/12/17 16:51:50;;;;;;;16.00;10.47;;;-2.60;99.90;;;;;;5077711;28;20187;-91
2022/12/17 16:54:19;;;;;;;20.60;11.23;;;-2.70;99.90;;;;;;5082105;28;20532;-87
2022/12/17 16:56:46;;;;;;;19.00;11.03;;;-2.70;99.90;;;;;;5083042;28;20203;-89
2022/12/17 16:59:20;;;;;;;17.83;11.10;;;-2.70;99.90;;;;;;5092961;28;20189;-89
2022/12/17 17:01:48;;;;;;;22.93;10.63;;;-2.80;99.90;;;;;;5087964;28;20168;-88
2022/12/17 17:04:17;;;;;;;15.73;10.70;;;-2.80;99.90;;;;;;5091387;28;20174;-87
2022/12/17 17:06:50;;;;;;;17.47;12.10;;;-2.90;99.90;;;;;;5077236;28;20222;-88
2022/12/17 17:09:17;;;;;;;20.23;11.87;;;-2.90;99.90;;;;;;5076816;28;20260;-87
2022/12/17 17:11:43;;;;;;;23.00;12.97;;;-2.90;99.90;;;;;;5077440;28;20189;-89
2022/12/17 17:14:09;;;;;;;21.33;12.47;;;-3.00;99.90;;;;;;5095305;28;20173;-87
2022/12/17 17:16:35;;;;;;;20.93;12.27;;;-3.00;99.90;;;;;;5077228;28;20255;-88
2022/12/17 17:19:03;;;;;;;20.43;12.57;;;-3.00;99.90;;;;;;5076879;28;20661;-89
2022/12/17 17:21:31;;;;;;;22.87;12.40;;;-3.10;99.90;;;;;;5066376;28;20192;-87
2022/12/17 17:24:01;;;;;;;19.83;12.10;;;-3.10;99.90;;;;;;5056599;28;20257;-87
2022/12/17 17:26:30;;;;;;;21.67;11.93;;;-3.20;99.90;;;;;;5057109;28;20252;-86
2022/12/17 17:29:04;;;;;;;22.03;12.27;;;-3.20;99.90;;;;;;5074898;28;20169;-88
2022/12/17 17:31:30;;;;;;;24.13;12.83;;;-3.20;99.90;;;;;;5061321;28;20205;-88
2022/12/17 17:33:56;;;;;;;23.10;13.10;;;-3.20;99.90;;;;;;5077074;28;20510;-88
2022/12/17 17:36:24;;;;;;;21.63;12.43;;;-3.20;99.90;;;;;;5076322;28;20189;-87
2022/12/17 17:38:52;;;;;;;24.40;13.97;;;-3.30;99.90;;;;;;5076632;28;20170;-87
2022/12/17 17:41:21;;;;;;;21.10;12.23;;;-3.30;99.90;;;;;;5076997;28;20173;-89
2022/12/17 17:43:51;;;;;;;25.37;13.07;;;-3.30;99.90;;;;;;5076882;28;20174;-87
2022/12/17 17:46:18;;;;;;;25.20;13.17;;;-3.30;99.90;;;;;;5076689;28;20210;-88
2022/12/17 17:48:46;;;;;;;22.67;13.73;;;-3.30;99.90;;;;;;5076850;28;20486;-88
2022/12/17 17:51:25;;;;;;;22.07;13.47;;;-3.30;99.90;;;;;;5068769;28;20194;-87
2022/12/17 17:53:52;;;;;;;29.10;14.03;;;-3.40;99.90;;;;;;5076403;28;20246;-88
2022/12/17 17:56:23;;;;;;;21.50;13.93;;;-3.40;99.90;;;;;;5076764;28;20505;-87
2022/12/17 17:59:02;;;;;;;24.83;13.77;;;-3.40;99.90;;;;;;5076640;28;20283;-87
2022/12/17 18:01:33;;;;;;;29.20;15.80;;;-3.40;99.90;;;;;;5068755;28;20239;-89
2022/12/17 18:04:00;;;;;;;23.33;13.77;;;-3.50;99.90;;;;;;5070753;28;20169;-87
2022/12/17 18:06:26;;;;;;;29.13;15.40;;;-3.50;99.90;;;;;;5076199;28;20222;-87
2022/12/17 18:08:56;;;;;;;27.33;15.30;;;-3.50;99.90;;;;;;5093816;28;20659;-87
2022/12/17 18:11:22;;;;;;;30.40;16.93;;;-3.50;99.90;;;;;;5073029;28;20182;-85
2022/12/17 18:13:54;;;;;;;26.90;16.57;;;-3.60;99.90;;;;;;5073644;28;20184;-90
2022/12/17 18:16:27;;;;;;;28.30;16.33;;;-3.60;99.90;;;;;;5076339;28;20581;-87
2022/12/17 18:19:00;;;;;;;32.63;17.20;;;-3.60;99.90;;;;;;5094782;28;20180;-87
2022/12/17 18:21:27;;;;;;;28.57;16.50;;;-3.60;99.90;;;;;;5094457;28;20181;-88
2022/12/17 18:23:59;;;;;;;30.30;16.90;;;-3.70;99.90;;;;;;5076114;28;20173;-90
2022/12/17 18:26:27;;;;;;;34.03;17.87;;;-3.70;99.90;;;;;;5076152;28;20212;-88
2022/12/17 18:28:53;;;;;;;26.67;15.80;;;-3.70;99.90;;;;;;5077491;28;20181;-86
2022/12/17 18:31:24;;;;;;;32.93;17.50;;;-3.80;99.90;;;;;;5081829;28;20329;-87
2022/12/17 18:33:54;;;;;;;33.73;17.93;;;-3.70;99.90;;;;;;5081038;28;20165;-86
2022/12/17 18:36:26;;;;;;;31.37;17.57;;;-3.80;99.90;;;;;;5090405;28;20176;-85
2022/12/17 18:39:03;;;;;;;33.53;16.30;;;-3.80;99.90;;;;;;5086818;28;20170;-87
2022/12/17 18:44:14;;;;;;;29.00;16.47;;;-3.90;99.90;;;;;;5094960;28;20563;-87
2022/12/17 18:46:40;;;;;;;29.60;17.70;;;-3.90;99.90;;;;;;5075642;28;20241;-87
2022/12/17 18:49:08;;;;;;;33.60;18.73;;;-4.00;99.90;;;;;;5079711;28;20613;-86
2022/12/17 18:51:36;;;;;;;33.40;17.83;;;-4.00;99.90;;;;;;5080111;28;20185;-86
2022/12/17 18:54:05;;;;;;;29.03;16.20;;;-3.90;99.90;;;;;;5079612;28;20178;-88
2022/12/17 18:56:32;;;;;;;29.27;17.40;;;-3.90;99.90;;;;;;5076650;28;20631;-86
2022/12/17 18:58:58;;;;;;;33.13;18.83;;;-3.90;99.90;;;;;;5059395;28;20174;-86
2022/12/17 19:01:26;;;;;;;34.00;18.33;;;-3.90;99.90;;;;;;5059198;28;20181;-86
2022/12/17 19:03:53;;;;;;;27.90;16.67;;;-3.90;99.90;;;;;;5058527;28;20181;-85
2022/12/17 19:06:20;;;;;;;32.07;17.10;;;-4.00;99.90;;;;;;5059353;28;20251;-86
2022/12/17 19:08:46;;;;;;;27.93;16.60;;;-4.00;99.90;;;;;;5076961;28;20679;-87
2022/12/17 19:11:16;;;;;;;27.97;15.87;;;-4.00;99.90;;;;;;5059000;28;20210;-87
2022/12/17 19:13:43;;;;;;;28.37;17.83;;;-4.00;99.90;;;;;;5077388;28;20193;-87
2022/12/17 19:16:24;;;;;;;33.23;17.83;;;-4.10;99.90;;;;;;5066794;28;20634;-86
2022/12/17 19:19:00;;;;;;;30.17;18.13;;;-4.10;99.90;;;;;;5097038;28;20204;-91
2022/12/17 19:21:27;;;;;;;31.67;17.23;;;-4.10;99.90;;;;;;5063666;28;20185;-88
2022/12/17 19:23:58;;;;;;;33.60;18.00;;;-4.20;99.90;;;;;;5058345;28;20181;-89
2022/12/17 19:26:24;;;;;;;31.40;16.90;;;-4.20;99.90;;;;;;5058646;28;20590;-88
2022/12/17 19:28:52;;;;;;;29.60;17.33;;;-4.10;99.90;;;;;;5059161;28;20173;-88
2022/12/17 19:31:20;;;;;;;31.30;16.70;;;-4.30;99.90;;;;;;5058913;28;20219;-87
2022/12/17 19:33:46;;;;;;;31.80;16.70;;;-4.20;99.90;;;;;;5059153;28;20233;-87
2022/12/17 19:36:15;;;;;;;32.60;16.77;;;-4.20;99.90;;;;;;5058930;28;20588;-89
2022/12/17 19:38:41;;;;;;;28.10;16.20;;;-4.20;99.90;;;;;;5076817;28;20483;-88
2022/12/17 19:41:17;;;;;;;27.27;15.97;;;-4.20;99.90;;;;;;5058950;28;20911;-89
2022/12/17 19:43:44;;;;;;;27.07;15.53;;;-4.20;99.90;;;;;;5059218;28;20512;-88
2022/12/17 19:46:13;;;;;;;24.67;15.10;;;-4.20;99.90;;;;;;5059058;28;20253;-88
2022/12/17 19:48:40;;;;;;;28.27;16.47;;;-4.20;99.90;;;;;;5059061;28;20272;-87
2022/12/17 19:51:08;;;;;;;31.23;16.47;;;-4.30;99.90;;;;;;5058623;28;20219;-88
2022/12/17 19:53:36;;;;;;;25.00;15.00;;;-4.30;99.90;;;;;;5068196;28;20205;-86
2022/12/17 19:56:08;;;;;;;33.50;16.43;;;-4.40;99.90;;;;;;5073877;28;20180;-86
2022/12/17 19:58:34;;;;;;;28.53;15.77;;;-4.40;99.90;;;;;;5074170;28;20185;-87
2022/12/17 20:01:13;;;;;;;26.97;15.10;;;-4.50;99.90;;;;;;5077113;28;20169;-87
2022/12/17 20:03:40;;;;;;;31.83;16.63;;;-4.50;99.90;;;;;;5058276;28;20501;-87
2022/12/17 20:06:08;;;;;;;27.50;15.87;;;-4.50;99.90;;;;;;5057316;28;20202;-87
2022/12/17 20:08:34;;;;;;;27.90;16.03;;;-4.50;99.90;;;;;;5072980;28;20236;-89
2022/12/17 20:11:02;;;;;;;28.87;16.03;;;-4.60;99.90;;;;;;5078272;28;20664;-87
2022/12/17 20:13:28;;;;;;;28.63;15.67;;;-4.60;99.90;;;;;;5078162;28;20176;-86
2022/12/17 20:16:01;;;;;;;26.60;14.60;;;-4.60;99.90;;;;;;5078056;28;20264;-86
2022/12/17 20:18:28;;;;;;;30.60;15.23;;;-4.60;99.90;;;;;;5094794;28;20186;-87
2022/12/17 20:21:02;;;;;;;25.27;14.47;;;-4.60;99.90;;;;;;5078077;28;20186;-86
2022/12/17 20:23:28;;;;;;;22.60;13.97;;;-4.60;99.90;;;;;;5094657;28;20176;-87
2022/12/17 20:26:06;;;;;;;28.90;14.40;;;-4.60;99.90;;;;;;5094743;28;20214;-86
2022/12/17 20:28:32;;;;;;;27.77;14.90;;;-4.60;99.90;;;;;;5094714;28;20226;-87
2022/12/17 20:31:01;;;;;;;25.27;15.07;;;-4.60;99.90;;;;;;5094678;28;20199;-87
2022/12/17 20:33:28;;;;;;;26.97;15.47;;;-4.60;99.90;;;;;;5094757;28;20180;-87
2022/12/17 20:35:54;;;;;;;25.53;15.07;;;-4.60;99.90;;;;;;5093978;28;20279;-88
2022/12/17 20:38:20;;;;;;;23.97;13.80;;;-4.60;99.90;;;;;;5094521;28;20263;-89
2022/12/17 20:40:46;;;;;;;25.97;14.20;;;-4.60;99.90;;;;;;5094596;28;20211;-88
2022/12/17 20:43:12;;;;;;;23.13;14.37;;;-4.60;99.90;;;;;;5094302;28;20611;-87
2022/12/17 20:45:38;;;;;;;29.10;14.97;;;-4.60;99.90;;;;;;5093354;28;20204;-88
2022/12/17 20:48:04;;;;;;;27.20;15.30;;;-4.70;99.90;;;;;;5077323;28;20209;-88
2022/12/17 20:50:30;;;;;;;25.57;14.93;;;-4.70;99.90;;;;;;5077385;28;20184;-88
2022/12/17 20:52:56;;;;;;;29.90;15.07;;;-4.70;99.90;;;;;;5065840;28;20216;-88
2022/12/17 20:55:22;;;;;;;28.20;15.33;;;-4.80;99.90;;;;;;5060955;28;20212;-88
2022/12/17 20:57:48;;;;;;;25.37;14.63;;;-4.80;99.90;;;;;;5063231;28;20224;-88
2022/12/17 21:00:17;;;;;;;24.60;14.53;;;-4.80;99.90;;;;;;5068232;28;20184;-90
2022/12/17 21:02:43;;;;;;;24.23;14.63;;;-4.80;99.90;;;;;;5068743;28;20191;-88
2022/12/17 21:05:10;;;;;;;25.53;14.23;;;-4.80;99.90;;;;;;5056394;28;20547;-90
2022/12/17 21:07:38;;;;;;;26.17;15.17;;;-4.80;99.90;;;;;;5069137;28;20185;-88
2022/12/17 21:10:04;;;;;;;26.97;14.13;;;-4.80;99.90;;;;;;5067656;28;20221;-87
2022/12/17 21:13:27;;;;;;;25.97;14.73;;;-4.90;99.90;;;;;;5062473;28;20579;-88
2022/12/17 21:15:15;;;;;;;22.73;13.80;;;-4.90;99.90;;;;;;5091655;28;20191;-87
2022/12/17 21:17:41;;;;;;;24.83;13.97;;;-5.00;99.90;;;;;;5065061;28;20185;-88
2022/12/17 21:20:07;;;;;;;25.53;14.33;;;-5.10;99.90;;;;;;5075834;28;20192;-87
2022/12/17 21:22:34;;;;;;;23.03;13.60;;;-5.10;99.90;;;;;;5071702;28;20622;-88
2022/12/17 21:24:59;;;;;;;21.97;13.33;;;-5.10;99.90;;;;;;5075413;28;20190;-88
2022/12/17 21:27:25;;;;;;;28.13;13.50;;;-5.20;99.90;;;;;;5091767;28;20294;-88
2022/12/17 21:29:51;;;;;;;27.50;14.27;;;-5.20;99.90;;;;;;5069236;28;20291;-87
2022/12/17 21:32:23;;;;;;;24.43;14.07;;;-5.30;99.90;;;;;;5076095;28;20253;-88
2022/12/17 21:34:49;;;;;;;27.27;14.67;;;-5.20;99.90;;;;;;5085262;28;20177;-87
2022/12/17 21:37:14;;;;;;;26.50;14.37;;;-5.30;99.90;;;;;;5075561;28;20197;-87
2022/12/17 21:39:40;;;;;;;26.57;14.07;;;-5.30;99.90;;;;;;5076020;28;20184;-88
2022/12/17 21:44:54;;;;;;;23.63;13.60;;;-5.40;99.90;;;;;;5093205;28;20210;-88
2022/12/17 21:47:19;;;;;;;24.57;14.13;;;-5.40;99.90;;;;;;5075867;28;20227;-88
2022/12/17 21:49:45;;;;;;;24.80;13.70;;;-5.40;99.90;;;;;;5076098;28;20189;-88
2022/12/17 21:52:13;;;;;;;21.77;13.93;;;-5.40;99.90;;;;;;5075859;28;20196;-88
2022/12/17 21:54:39;;;;;;;24.23;12.80;;;-5.50;99.90;;;;;;5069799;28;20255;-87
2022/12/17 21:57:04;;;;;;;24.00;13.27;;;-5.50;99.90;;;;;;5075323;28;20610;-87
2022/12/17 21:59:30;;;;;;;23.70;14.13;;;-5.50;99.90;;;;;;5071348;28;20282;-88
2022/12/17 22:02:00;;;;;;;29.33;16.07;;;-5.60;99.90;;;;;;5075186;28;20189;-89
2022/12/17 22:04:26;;;;;;;27.20;14.23;;;-5.70;99.90;;;;;;5092940;28;20630;-87
2022/12/17 22:06:52;;;;;;;30.23;14.87;;;-5.70;99.90;;;;;;5075677;28;20225;-87
2022/12/17 22:09:17;;;;;;;31.77;15.93;;;-5.70;99.90;;;;;;5075465;28;20330;-88
2022/12/17 22:11:43;;;;;;;25.50;14.30;;;-5.70;99.90;;;;;;5074719;28;20185;-88
2022/12/17 22:14:11;;;;;;;24.13;14.20;;;-5.70;99.90;;;;;;5093847;28;20182;-88
2022/12/17 22:16:41;;;;;;;24.63;13.90;;;-5.80;99.90;;;;;;5076712;28;20174;-89
2022/12/17 22:19:09;;;;;;;27.77;14.87;;;-5.80;99.90;;;;;;5076643;28;20583;-89
2022/12/17 22:21:37;;;;;;;26.07;15.40;;;-5.80;99.90;;;;;;5076467;28;20493;-88
2022/12/17 22:24:04;;;;;;;25.30;14.77;;;-5.80;99.90;;;;;;5080047;28;20206;-88
2022/12/17 22:26:32;;;;;;;25.97;14.33;;;-5.80;99.90;;;;;;5080099;28;20218;-88
2022/12/17 22:28:59;;;;;;;23.33;13.60;;;-5.80;99.90;;;;;;5080408;28;20184;-88
2022/12/17 22:34:12;;;;;;;26.37;13.73;;;-5.80;99.90;;;;;;5098789;28;20169;-88
2022/12/17 22:36:38;;;;;;;24.03;14.10;;;-5.80;99.90;;;;;;5080373;28;20188;-89
2022/12/17 22:39:08;;;;;;;27.43;14.67;;;-5.90;99.90;;;;;;5080422;28;20625;-88
2022/12/17 22:44:18;;;;;;;23.17;13.77;;;-5.90;99.90;;;;;;5098412;28;20175;-88
2022/12/17 22:46:44;;;;;;;24.80;13.53;;;-5.80;99.90;;;;;;5079814;28;20237;-88
2022/12/17 22:49:10;;;;;;;24.13;14.10;;;-5.80;99.90;;;;;;5080235;28;20183;-88
2022/12/17 22:51:36;;;;;;;25.83;14.70;;;-5.90;99.90;;;;;;5080183;28;20685;-89
2022/12/17 22:54:04;;;;;;;22.90;14.03;;;-6.00;99.90;;;;;;5098170;28;20260;-89
2022/12/17 22:56:30;;;;;;;23.33;13.70;;;-5.90;99.90;;;;;;5079951;28;20178;-88
2022/12/17 22:58:56;;;;;;;22.80;12.87;;;-6.00;99.90;;;;;;5079888;28;20177;-88
2022/12/17 23:01:22;;;;;;;23.40;13.07;;;-6.00;99.90;;;;;;5079868;28;20273;-87
2022/12/17 23:03:48;;;;;;;25.33;13.53;;;-6.10;99.90;;;;;;5079746;28;20225;-89
2022/12/17 23:06:16;;;;;;;21.87;12.80;;;-6.20;99.90;;;;;;5079660;28;20254;-88
2022/12/17 23:08:43;;;;;;;25.87;13.90;;;-6.30;99.90;;;;;;5079755;28;20762;-88
2022/12/17 23:11:11;;;;;;;22.53;13.50;;;-6.30;99.90;;;;;;5079765;28;20482;-89
2022/12/17 23:13:40;;;;;;;22.13;12.57;;;-6.30;99.90;;;;;;5079088;28;20524;-89
2022/12/17 23:16:06;;;;;;;24.67;12.73;;;-6.30;99.90;;;;;;5079798;28;20177;-88
2022/12/17 23:18:32;;;;;;;21.47;12.80;;;-6.30;99.90;;;;;;5096673;28;20174;-88
2022/12/17 23:21:14;;;;;;;24.83;13.80;;;-6.20;99.90;;;;;;5079797;28;20616;-89
2022/12/17 23:23:48;;;;;;;24.13;13.33;;;-6.10;99.90;;;;;;5096526;28;20181;-89
2022/12/17 23:26:17;;;;;;;23.80;12.83;;;-6.20;99.90;;;;;;5096199;28;20205;-88
2022/12/17 23:28:43;;;;;;;23.10;12.97;;;-6.20;99.90;;;;;;5096144;28;20185;-89
2022/12/17 23:31:11;;;;;;;23.30;12.07;;;-6.30;99.90;;;;;;5079306;28;20170;-89
2022/12/17 23:33:38;;;;;;;23.70;13.53;;;-6.30;99.90;;;;;;5095694;28;20514;-90
2022/12/17 23:36:11;;;;;;;26.97;14.30;;;-6.30;99.90;;;;;;5096248;28;20180;-90
2022/12/17 23:38:37;;;;;;;27.70;14.23;;;-6.40;99.90;;;;;;5096018;28;20947;-89
2022/12/17 23:41:09;;;;;;;24.27;13.13;;;-6.40;99.90;;;;;;5096002;28;20172;-90
2022/12/17 23:43:37;;;;;;;22.53;12.90;;;-6.40;99.90;;;;;;5077485;28;20194;-90
2022/12/17 23:46:03;;;;;;;27.97;13.27;;;-6.40;99.90;;;;;;5059143;28;20198;-89
2022/12/17 23:48:32;;;;;;;22.23;13.20;;;-6.50;99.90;;;;;;5058986;28;20177;-90
2022/12/17 23:50:58;;;;;;;25.47;12.80;;;-6.50;99.90;;;;;;5058752;28;20269;-87
2022/12/17 23:53:29;;;;;;;21.07;13.57;;;-6.40;99.90;;;;;;5058929;28;20260;-88
2022/12/17 23:56:02;;;;;;;22.93;12.00;;;-6.40;99.90;;;;;;5059011;28;20170;-90
2022/12/17 23:58:28;;;;;;;23.93;12.43;;;-6.50;99.90;;;;;;5058811;28;20169;-89
